sensor_id;sensor_type;location;lat;lon;timestamp;temperature;humidity
56066;DHT22;41942;50.922;4.514;2024-01-15T15:37:30;13.60;45.70
56066;DHT22;41942;50.922;4.514;2024-01-15T15:39:58;9.00;57.30
56066;DHT22;41942;50.922;4.514;2024-01-15T15:42:27;7.80;60.40
56066;DHT22;41942;50.922;4.514;2024-01-15T15:44:52;7.00;62.90
56066;DHT22;41942;50.922;4.514;2024-01-15T15:47:20;6.20;65.50
56066;DHT22;41942;50.922;4.514;2024-01-15T15:49:47;5.00;70.70
56066;DHT22;41942;50.922;4.514;2024-01-15T15:52:12;4.30;73.00
56066;DHT22;41942;50.922;4.514;2024-01-15T15:54:38;3.70;76.50
56066;DHT22;41942;50.922;4.514;2024-01-15T15:57:06;3.10;79.10
56066;DHT22;41942;50.922;4.514;2024-01-15T15:59:31;2.80;80.20
56066;DHT22;41942;50.922;4.514;2024-01-15T16:01:57;2.50;81.90
56066;DHT22;41942;50.922;4.514;2024-01-15T16:04:23;2.10;84.30
56066;DHT22;41942;50.922;4.514;2024-01-15T16:06:49;1.80;85.30
56066;DHT22;41942;50.922;4.514;2024-01-15T16:09:15;1.80;86.60
56066;DHT22;41942;50.922;4.514;2024-01-15T16:11:45;1.80;86.30
56066;DHT22;41942;50.922;4.514;2024-01-15T16:14:12;1.90;86.10
56066;DHT22;41942;50.922;4.514;2024-01-15T16:16:38;2.00;86.20
56066;DHT22;41942;50.922;4.514;2024-01-15T16:19:03;1.80;87.10
56066;DHT22;41942;50.922;4.514;2024-01-15T16:21:33;1.70;87.40
56066;DHT22;41942;50.922;4.514;2024-01-15T16:23:59;1.60;88.30
56066;DHT22;41942;50.922;4.514;2024-01-15T16:26:27;1.50;88.30
56066;DHT22;41942;50.922;4.514;2024-01-15T16:28:53;1.60;88.40
56066;DHT22;41942;50.922;4.514;2024-01-15T16:31:23;1.50;89.30
56066;DHT22;41942;50.922;4.514;2024-01-15T16:33:49;1.50;89.80
56066;DHT22;41942;50.922;4.514;2024-01-15T16:36:14;1.60;89.90
56066;DHT22;41942;50.922;4.514;2024-01-15T16:38:40;1.70;89.40
56066;DHT22;41942;50.922;4.514;2024-01-15T16:41:06;1.60;89.70
56066;DHT22;41942;50.922;4.514;2024-01-15T16:43:32;1.70;89.40
56066;DHT22;41942;50.922;4.514;2024-01-15T16:45:57;1.70;89.30
56066;DHT22;41942;50.922;4.514;2024-01-15T16:48:23;1.70;90.00
56066;DHT22;41942;50.922;4.514;2024-01-15T16:50:49;1.60;89.90
56066;DHT22;41942;50.922;4.514;2024-01-15T16:53:15;1.80;89.60
56066;DHT22;41942;50.922;4.514;2024-01-15T16:55:45;1.80;89.60
56066;DHT22;41942;50.922;4.514;2024-01-15T16:58:13;2.10;89.20
56066;DHT22;41942;50.922;4.514;2024-01-15T17:00:40;2.20;88.30
56066;DHT22;41942;50.922;4.514;2024-01-15T17:03:10;2.30;87.70
56066;DHT22;41942;50.922;4.514;2024-01-15T17:05:36;2.30;87.30
56066;DHT22;41942;50.922;4.514;2024-01-15T17:08:05;2.20;87.00
56066;DHT22;41942;50.922;4.514;2024-01-15T17:10:31;2.30;87.20
56066;DHT22;41942;50.922;4.514;2024-01-15T17:13:00;2.10;87.40
56066;DHT22;41942;50.922;4.514;2024-01-15T17:15:28;1.60;90.50
56066;DHT22;41942;50.922;4.514;2024-01-15T17:17:54;1.50;90.60
56066;DHT22;41942;50.922;4.514;2024-01-15T17:20:19;1.60;90.30
56066;DHT22;41942;50.922;4.514;2024-01-15T17:22:45;1.60;90.00
56066;DHT22;41942;50.922;4.514;2024-01-15T17:25:11;1.50;89.70
56066;DHT22;41942;50.922;4.514;2024-01-15T17:27:38;1.50;90.00
56066;DHT22;41942;50.922;4.514;2024-01-15T17:30:07;1.60;89.70
56066;DHT22;41942;50.922;4.514;2024-01-15T17:32:36;1.70;89.70
56066;DHT22;41942;50.922;4.514;2024-01-15T17:35:02;1.30;90.40
56066;DHT22;41942;50.922;4.514;2024-01-15T17:37:31;1.30;90.60
56066;DHT22;41942;50.922;4.514;2024-01-15T17:39:57;1.30;90.70
56066;DHT22;41942;50.922;4.514;2024-01-15T17:42:22;1.20;91.30
56066;DHT22;41942;50.922;4.514;2024-01-15T17:44:50;1.20;91.40
56066;DHT22;41942;50.922;4.514;2024-01-15T17:47:18;1.30;91.30
56066;DHT22;41942;50.922;4.514;2024-01-15T17:49:44;1.40;91.50
56066;DHT22;41942;50.922;4.514;2024-01-15T17:52:09;1.50;91.00
56066;DHT22;41942;50.922;4.514;2024-01-15T17:54:37;1.40;91.10
56066;DHT22;41942;50.922;4.514;2024-01-15T17:57:03;1.30;90.90
56066;DHT22;41942;50.922;4.514;2024-01-15T17:59:29;1.10;91.40
56066;DHT22;41942;50.922;4.514;2024-01-15T18:01:57;1.00;91.50
56066;DHT22;41942;50.922;4.514;2024-01-15T18:04:22;1.00;91.90
56066;DHT22;41942;50.922;4.514;2024-01-15T18:06:48;0.90;92.10
56066;DHT22;41942;50.922;4.514;2024-01-15T18:09:14;0.90;92.20
56066;DHT22;41942;50.922;4.514;2024-01-15T18:11:45;0.80;92.00
56066;DHT22;41942;50.922;4.514;2024-01-15T18:14:13;0.80;92.30
56066;DHT22;41942;50.922;4.514;2024-01-15T18:16:40;0.80;92.30
56066;DHT22;41942;50.922;4.514;2024-01-15T18:19:06;0.80;92.30
56066;DHT22;41942;50.922;4.514;2024-01-15T18:21:32;0.80;92.40
56066;DHT22;41942;50.922;4.514;2024-01-15T18:23:58;0.70;92.50
56066;DHT22;41942;50.922;4.514;2024-01-15T18:26:24;0.90;92.70
56066;DHT22;41942;50.922;4.514;2024-01-15T18:28:51;1.00;92.30
56066;DHT22;41942;50.922;4.514;2024-01-15T18:31:17;1.00;92.20
56066;DHT22;41942;50.922;4.514;2024-01-15T18:33:45;0.90;92.60
56066;DHT22;41942;50.922;4.514;2024-01-15T18:36:10;0.90;92.60
56066;DHT22;41942;50.922;4.514;2024-01-15T18:38:36;1.00;92.50
56066;DHT22;41942;50.922;4.514;2024-01-15T18:41:02;0.90;92.20
56066;DHT22;41942;50.922;4.514;2024-01-15T18:43:32;1.00;92.40
56066;DHT22;41942;50.922;4.514;2024-01-15T18:46:04;0.90;92.30
56066;DHT22;41942;50.922;4.514;2024-01-15T18:48:32;1.10;92.10
56066;DHT22;41942;50.922;4.514;2024-01-15T18:50:58;1.20;91.90
56066;DHT22;41942;50.922;4.514;2024-01-15T18:53:27;1.40;91.70
56066;DHT22;41942;50.922;4.514;2024-01-15T18:55:53;1.40;91.50
56066;DHT22;41942;50.922;4.514;2024-01-15T18:58:21;1.30;91.50
56066;DHT22;41942;50.922;4.514;2024-01-15T19:00:47;1.30;91.70
56066;DHT22;41942;50.922;4.514;2024-01-15T19:03:13;1.40;91.60
56066;DHT22;41942;50.922;4.514;2024-01-15T19:05:41;1.50;91.30
56066;DHT22;41942;50.922;4.514;2024-01-15T19:08:07;1.60;91.30
56066;DHT22;41942;50.922;4.514;2024-01-15T19:10:32;1.70;90.80
56066;DHT22;41942;50.922;4.514;2024-01-15T19:12:58;1.70;90.60
56066;DHT22;41942;50.922;4.514;2024-01-15T19:15:25;1.60;90.40
56066;DHT22;41942;50.922;4.514;2024-01-15T19:17:52;1.70;90.60
56066;DHT22;41942;50.922;4.514;2024-01-15T19:20:18;1.70;90.30
56066;DHT22;41942;50.922;4.514;2024-01-15T19:22:44;1.60;90.40
56066;DHT22;41942;50.922;4.514;2024-01-15T19:25:12;1.60;90.40
56066;DHT22;41942;50.922;4.514;2024-01-15T19:27:38;1.60;90.10
56066;DHT22;41942;50.922;4.514;2024-01-15T19:30:10;1.50;90.40
56066;DHT22;41942;50.922;4.514;2024-01-15T19:32:39;1.50;90.40
56066;DHT22;41942;50.922;4.514;2024-01-15T19:35:07;1.40;90.60
56066;DHT22;41942;50.922;4.514;2024-01-15T19:37:32;1.30;90.60
56066;DHT22;41942;50.922;4.514;2024-01-15T19:39:59;1.30;90.70
56066;DHT22;41942;50.922;4.514;2024-01-15T19:42:24;1.50;90.40
56066;DHT22;41942;50.922;4.514;2024-01-15T19:44:50;1.50;90.20
56066;DHT22;41942;50.922;4.514;2024-01-15T19:47:18;1.60;90.00
56066;DHT22;41942;50.922;4.514;2024-01-15T19:49:46;1.60;90.00
56066;DHT22;41942;50.922;4.514;2024-01-15T19:52:14;1.70;88.30
56066;DHT22;41942;50.922;4.514;2024-01-15T19:54:41;1.50;88.90
56066;DHT22;41942;50.922;4.514;2024-01-15T19:57:07;1.50;90.00
56066;DHT22;41942;50.922;4.514;2024-01-15T19:59:36;1.50;89.80
56066;DHT22;41942;50.922;4.514;2024-01-15T20:02:04;1.50;89.90
56066;DHT22;41942;50.922;4.514;2024-01-15T20:04:29;1.50;89.80
56066;DHT22;41942;50.922;4.514;2024-01-15T20:06:57;1.50;89.00
56066;DHT22;41942;50.922;4.514;2024-01-15T20:09:23;1.50;89.40
56066;DHT22;41942;50.922;4.514;2024-01-15T20:11:51;1.50;89.50
56066;DHT22;41942;50.922;4.514;2024-01-15T20:14:19;1.60;89.50
56066;DHT22;41942;50.922;4.514;2024-01-15T20:16:45;1.70;88.80
56066;DHT22;41942;50.922;4.514;2024-01-15T20:19:11;1.60;89.20
56066;DHT22;41942;50.922;4.514;2024-01-15T20:21:37;1.70;89.60
56066;DHT22;41942;50.922;4.514;2024-01-15T20:24:04;1.70;89.00
56066;DHT22;41942;50.922;4.514;2024-01-15T20:26:30;1.60;88.70
56066;DHT22;41942;50.922;4.514;2024-01-15T20:28:55;1.60;89.10
56066;DHT22;41942;50.922;4.514;2024-01-15T20:31:23;1.50;89.50
56066;DHT22;41942;50.922;4.514;2024-01-15T20:33:51;1.60;89.20
56066;DHT22;41942;50.922;4.514;2024-01-15T20:36:19;1.60;89.30
56066;DHT22;41942;50.922;4.514;2024-01-15T20:38:45;1.50;89.40
56066;DHT22;41942;50.922;4.514;2024-01-15T20:41:11;1.60;88.90
56066;DHT22;41942;50.922;4.514;2024-01-15T20:43:39;1.70;88.60
56066;DHT22;41942;50.922;4.514;2024-01-15T20:46:06;1.70;88.30
56066;DHT22;41942;50.922;4.514;2024-01-15T20:48:32;1.80;88.20
56066;DHT22;41942;50.922;4.514;2024-01-15T20:50:57;1.60;88.70
56066;DHT22;41942;50.922;4.514;2024-01-15T20:53:23;1.70;88.10
56066;DHT22;41942;50.922;4.514;2024-01-15T20:55:51;1.70;87.90
56066;DHT22;41942;50.922;4.514;2024-01-15T20:58:23;1.60;87.80
56066;DHT22;41942;50.922;4.514;2024-01-15T21:00:49;1.60;88.30
56066;DHT22;41942;50.922;4.514;2024-01-15T21:03:15;1.50;87.90
56066;DHT22;41942;50.922;4.514;2024-01-15T21:05:42;1.40;88.80
56066;DHT22;41942;50.922;4.514;2024-01-15T21:08:08;1.40;88.80
56066;DHT22;41942;50.922;4.514;2024-01-15T21:10:35;1.50;87.80
56066;DHT22;41942;50.922;4.514;2024-01-15T21:13:01;1.60;87.70
56066;DHT22;41942;50.922;4.514;2024-01-15T21:15:29;1.50;87.90
56066;DHT22;41942;50.922;4.514;2024-01-15T21:17:55;1.50;88.30
56066;DHT22;41942;50.922;4.514;2024-01-15T21:20:20;1.50;87.90
56066;DHT22;41942;50.922;4.514;2024-01-15T21:22:48;1.60;88.10
56066;DHT22;41942;50.922;4.514;2024-01-15T21:25:15;1.60;88.10
56066;DHT22;41942;50.922;4.514;2024-01-15T21:27:41;1.60;87.90
56066;DHT22;41942;50.922;4.514;2024-01-15T21:30:12;1.70;87.50
56066;DHT22;41942;50.922;4.514;2024-01-15T21:32:39;1.90;86.10
56066;DHT22;41942;50.922;4.514;2024-01-15T21:35:05;1.90;85.50
56066;DHT22;41942;50.922;4.514;2024-01-15T21:37:31;1.90;85.90
56066;DHT22;41942;50.922;4.514;2024-01-15T21:39:57;1.90;86.10
56066;DHT22;41942;50.922;4.514;2024-01-15T21:42:22;1.90;85.50
56066;DHT22;41942;50.922;4.514;2024-01-15T21:44:48;2.00;85.40
56066;DHT22;41942;50.922;4.514;2024-01-15T21:47:14;2.00;85.40
56066;DHT22;41942;50.922;4.514;2024-01-15T21:49:41;2.00;85.00
56066;DHT22;41942;50.922;4.514;2024-01-15T21:52:07;2.00;85.10
56066;DHT22;41942;50.922;4.514;2024-01-15T21:54:32;1.90;85.40
56066;DHT22;41942;50.922;4.514;2024-01-15T21:56:58;1.90;85.90
56066;DHT22;41942;50.922;4.514;2024-01-15T21:59:24;1.90;85.80
56066;DHT22;41942;50.922;4.514;2024-01-15T22:01:52;1.80;85.80
56066;DHT22;41942;50.922;4.514;2024-01-15T22:04:24;1.70;86.50
56066;DHT22;41942;50.922;4.514;2024-01-15T22:06:49;1.70;86.40
56066;DHT22;41942;50.922;4.514;2024-01-15T22:09:17;1.70;85.90
56066;DHT22;41942;50.922;4.514;2024-01-15T22:11:46;1.80;86.70
56066;DHT22;41942;50.922;4.514;2024-01-15T22:14:11;1.70;86.00
56066;DHT22;41942;50.922;4.514;2024-01-15T22:16:37;1.70;86.20
56066;DHT22;41942;50.922;4.514;2024-01-15T22:19:03;1.70;86.20
56066;DHT22;41942;50.922;4.514;2024-01-15T22:21:28;1.80;86.40
56066;DHT22;41942;50.922;4.514;2024-01-15T22:23:54;1.70;86.10
56066;DHT22;41942;50.922;4.514;2024-01-15T22:26:20;1.80;86.30
56066;DHT22;41942;50.922;4.514;2024-01-15T22:28:47;1.80;85.80
56066;DHT22;41942;50.922;4.514;2024-01-15T22:31:13;1.90;86.20
56066;DHT22;41942;50.922;4.514;2024-01-15T22:33:41;1.80;85.60
56066;DHT22;41942;50.922;4.514;2024-01-15T22:36:07;1.90;85.10
56066;DHT22;41942;50.922;4.514;2024-01-15T22:38:33;1.80;85.10
56066;DHT22;41942;50.922;4.514;2024-01-15T22:40:58;1.80;86.10
56066;DHT22;41942;50.922;4.514;2024-01-15T22:43:24;1.80;85.80
56066;DHT22;41942;50.922;4.514;2024-01-15T22:45:52;1.90;85.00
56066;DHT22;41942;50.922;4.514;2024-01-15T22:48:18;1.90;83.70
56066;DHT22;41942;50.922;4.514;2024-01-15T22:50:43;1.80;84.70
56066;DHT22;41942;50.922;4.514;2024-01-15T22:53:11;1.80;85.20
56066;DHT22;41942;50.922;4.514;2024-01-15T22:55:42;1.80;84.70
56066;DHT22;41942;50.922;4.514;2024-01-15T22:58:07;1.80;84.70
56066;DHT22;41942;50.922;4.514;2024-01-15T23:00:33;1.80;84.80
56066;DHT22;41942;50.922;4.514;2024-01-15T23:02:58;1.70;85.40
56066;DHT22;41942;50.922;4.514;2024-01-15T23:05:26;1.80;85.60
56066;DHT22;41942;50.922;4.514;2024-01-15T23:07:57;1.80;84.40
56066;DHT22;41942;50.922;4.514;2024-01-15T23:10:23;1.80;85.40
56066;DHT22;41942;50.922;4.514;2024-01-15T23:12:48;1.80;84.50
56066;DHT22;41942;50.922;4.514;2024-01-15T23:15:16;1.70;85.00
56066;DHT22;41942;50.922;4.514;2024-01-15T23:17:44;1.50;84.80
56066;DHT22;41942;50.922;4.514;2024-01-15T23:20:13;1.50;85.50
56066;DHT22;41942;50.922;4.514;2024-01-15T23:22:39;1.50;86.00
56066;DHT22;41942;50.922;4.514;2024-01-15T23:25:10;1.50;85.50
56066;DHT22;41942;50.922;4.514;2024-01-15T23:27:36;1.60;85.90
56066;DHT22;41942;50.922;4.514;2024-01-15T23:30:02;1.50;85.90
56066;DHT22;41942;50.922;4.514;2024-01-15T23:32:33;1.50;85.40
56066;DHT22;41942;50.922;4.514;2024-01-15T23:34:59;1.60;85.40
56066;DHT22;41942;50.922;4.514;2024-01-15T23:37:28;1.60;85.90
56066;DHT22;41942;50.922;4.514;2024-01-15T23:39:57;1.60;85.60
56066;DHT22;41942;50.922;4.514;2024-01-15T23:42:23;1.50;86.50
56066;DHT22;41942;50.922;4.514;2024-01-15T23:44:51;1.50;85.20
56066;DHT22;41942;50.922;4.514;2024-01-15T23:47:19;1.50;85.90
56066;DHT22;41942;50.922;4.514;2024-01-15T23:49:47;1.50;86.10
56066;DHT22;41942;50.922;4.514;2024-01-15T23:52:13;1.60;85.90
56066;DHT22;41942;50.922;4.514;2024-01-15T23:54:38;1.70;85.40
56066;DHT22;41942;50.922;4.514;2024-01-15T23:57:06;1.60;85.20
56066;DHT22;41942;50.922;4.514;2024-01-15T23:59:32;1.50;85.30
